#aviationlovers

Here can be your content

Promote Yourself on Twipu

Promote Yourself on Twipu

LPPT 192030Z 29008KT 9999 FEW030 18/14 Q1016 #aviation #airplanes #metar #weather #avgeek #aviationlovers

0
0
0
LPPT METAR
33 minutes ago

LPPT 192000Z 30009KT 9999 FEW035 19/14 Q1016 #aviation #airplanes #metar #weather #avgeek #aviationlovers

0
1
0

LPPT 191930Z 32009KT 9999 FEW035 20/14 Q1016 #aviation #airplanes #metar #weather #avgeek #aviationlovers

0
0
0

LPPT 191900Z 31008KT 280V340 9999 FEW030 21/14 Q1016 #aviation #airplanes #metar #weather #avgeek #aviationlovers

0
0
0

LPPT 191830Z 30007KT 250V350 9999 FEW020 SCT035 21/14 Q1016 #aviation #airplanes #metar #weather #avgeek #aviationlovers

0
0
0

LPPT 191800Z 28007KT 260V320 9999 FEW020 SCT035 21/13 Q1016 #aviation #airplanes #metar #weather #avgeek #aviationlovers

0
0
0

LPPT 191730Z 26008KT 220V310 9999 FEW020 SCT035 23/13 Q1016 #aviation #airplanes #metar #weather #avgeek #aviationlovers

0
0
0
Next Page